Time;durP1;ratioP1;P1;durP2;ratioP2;P2;SDS_P1;SDS_P2;PMS_P1;PMS_P2;Temp;Humidity;BMP_temperature;BMP_pressure;BME280_temperature;BME280_humidity;BME280_pressure;Samples;Min_cycle;Max_cycle;Signal;HPM_P1;HPM_P2
2023/10/30 00:02:18;;;;;;;14.57;2.42;;;;;;;9.96;97.12;99773.13;5019253;28;20021;-68
2023/10/30 00:04:43;;;;;;;11.85;2.63;;;;;;;9.99;97.35;99780.69;5015198;28;20032;-68
2023/10/30 00:07:08;;;;;;;12.98;2.40;;;;;;;9.98;97.47;99771.91;5018883;28;20030;-68
2023/10/30 00:09:34;;;;;;;9.10;2.30;;;;;;;10.02;97.76;99788.25;5024678;28;20510;-68
2023/10/30 00:12:00;;;;;;;13.93;2.40;;;;;;;10.02;98.22;99788.25;5013274;28;20032;-68
2023/10/30 00:14:26;;;;;;;12.05;2.33;;;;;;;10.01;98.08;99787.44;5019037;28;20726;-68
2023/10/30 00:16:51;;;;;;;16.17;3.10;;;;;;;10.04;98.27;99788.88;5012802;28;20021;-68
2023/10/30 00:19:16;;;;;;;12.35;2.53;;;;;;;10.04;98.72;99795.00;5021915;28;20029;-68
2023/10/30 00:21:43;;;;;;;10.20;2.30;;;;;;;10.06;98.98;99797.47;5022375;28;20102;-68
2023/10/30 00:24:08;;;;;;;12.23;2.42;;;;;;;10.05;98.97;99796.66;5021535;28;20065;-68
2023/10/30 00:26:33;;;;;;;10.82;2.45;;;;;;;10.09;99.02;99810.34;5027790;28;20104;-68
2023/10/30 00:28:58;;;;;;;13.38;2.35;;;;;;;10.09;99.20;99813.81;5017576;28;20033;-68
2023/10/30 00:31:25;;;;;;;13.77;2.65;;;;;;;10.13;99.69;99815.09;5023929;28;20551;-68
2023/10/30 00:33:50;;;;;;;10.82;2.50;;;;;;;10.12;99.64;99817.91;5018332;28;20040;-68
2023/10/30 00:36:16;;;;;;;13.18;2.33;;;;;;;10.14;99.75;99818.56;5019168;28;20426;-68
2023/10/30 00:38:41;;;;;;;12.88;2.38;;;;;;;10.15;99.50;99821.03;5017145;28;20026;-68
2023/10/30 00:41:12;;;;;;;17.88;2.63;;;;;;;10.17;99.73;99831.44;5017906;28;20503;-68
2023/10/30 00:43:37;;;;;;;13.88;2.67;;;;;;;10.12;99.84;99826.72;5013468;28;20049;-68
2023/10/30 00:46:09;;;;;;;14.68;2.70;;;;;;;10.14;100.00;99827.34;5011444;28;20018;-68
2023/10/30 00:48:34;;;;;;;12.88;2.85;;;;;;;10.18;100.00;99830.44;5011670;28;20017;-68
2023/10/30 00:50:59;;;;;;;14.93;2.80;;;;;;;10.17;99.99;99828.78;5018619;28;20026;-68
2023/10/30 00:53:25;;;;;;;14.15;2.38;;;;;;;10.21;100.00;99840.69;5013240;28;20048;-68
2023/10/30 00:55:50;;;;;;;14.68;2.50;;;;;;;10.22;100.00;99837.00;5013079;28;20028;-68
2023/10/30 00:58:16;;;;;;;14.32;2.80;;;;;;;10.23;100.00;99844.78;5013867;28;20069;-67
2023/10/30 01:00:41;;;;;;;12.25;2.95;;;;;;;10.24;100.00;99851.72;5018066;28;20157;-68
2023/10/30 01:03:07;;;;;;;15.10;2.85;;;;;;;10.22;100.00;99844.97;5020220;28;20029;-68
2023/10/30 01:05:32;;;;;;;12.73;2.47;;;;;;;10.22;100.00;99852.94;5023155;28;20025;-68
2023/10/30 01:07:57;;;;;;;14.50;2.67;;;;;;;10.26;100.00;99858.66;5014953;28;20036;-68
2023/10/30 01:10:23;;;;;;;18.67;2.67;;;;;;;10.26;100.00;99866.63;5015180;28;20109;-68
2023/10/30 01:12:48;;;;;;;10.52;2.63;;;;;;;10.28;100.00;99873.38;5021055;28;20034;-68
2023/10/30 01:15:13;;;;;;;11.57;2.70;;;;;;;10.26;100.00;99878.06;5016730;28;20143;-68
2023/10/30 01:17:39;;;;;;;17.90;2.65;;;;;;;10.23;100.00;99871.31;5010984;28;20025;-68
2023/10/30 01:20:05;;;;;;;12.13;2.30;;;;;;;10.21;100.00;99873.34;5016486;28;20029;-68
2023/10/30 01:22:30;;;;;;;15.45;2.65;;;;;;;10.24;100.00;99877.44;5023328;28;20590;-68
2023/10/30 01:24:56;;;;;;;12.52;2.50;;;;;;;10.25;100.00;99879.09;5025953;28;20115;-68
2023/10/30 01:27:22;;;;;;;12.07;2.80;;;;;;;10.24;100.00;99891.53;5019787;28;20117;-68
2023/10/30 01:29:47;;;;;;;15.98;2.70;;;;;;;10.24;100.00;99883.56;5016747;28;20399;-68
2023/10/30 01:32:12;;;;;;;13.70;2.65;;;;;;;10.26;100.00;99887.88;5018596;28;20109;-68
2023/10/30 01:34:37;;;;;;;13.23;2.15;;;;;;;10.26;100.00;99887.88;5020833;28;20492;-68
2023/10/30 01:37:03;;;;;;;14.60;2.75;;;;;;;10.26;100.00;99880.72;5031181;28;20034;-68
2023/10/30 01:39:28;;;;;;;12.57;2.55;;;;;;;10.13;100.00;99854.88;5008363;28;20113;-68
2023/10/30 01:41:54;;;;;;;16.02;2.70;;;;;;;10.27;100.00;99886.84;5019010;28;20088;-68
2023/10/30 01:44:19;;;;;;;12.32;2.17;;;;;;;10.26;100.00;99874.59;5013601;28;20063;-68
2023/10/30 01:46:44;;;;;;;12.98;2.25;;;;;;;10.24;100.00;99872.97;5022299;28;20030;-68
2023/10/30 01:49:10;;;;;;;12.70;2.65;;;;;;;10.26;100.00;99870.09;5020248;28;20527;-68
2023/10/30 01:51:36;;;;;;;12.23;2.88;;;;;;;10.27;100.00;99878.88;5023075;28;20033;-68
2023/10/30 01:54:01;;;;;;;12.02;2.65;;;;;;;10.29;100.00;99877.69;5021025;28;20038;-68
2023/10/30 01:56:26;;;;;;;16.08;2.20;;;;;;;10.31;100.00;99877.50;5024540;28;20029;-69
2023/10/30 01:58:52;;;;;;;15.85;2.78;;;;;;;10.31;100.00;99877.50;5017812;28;20124;-68
2023/10/30 02:01:18;;;;;;;13.50;2.50;;;;;;;10.33;100.00;99875.47;5023894;28;20033;-68
2023/10/30 02:03:43;;;;;;;13.98;2.58;;;;;;;10.32;100.00;99879.13;5028608;28;20491;-68
2023/10/30 02:06:09;;;;;;;13.38;2.45;;;;;;;10.34;100.00;99885.06;5020416;28;20033;-68
2023/10/30 02:08:34;;;;;;;12.10;2.70;;;;;;;10.33;100.00;99889.56;5021364;28;20117;-69
2023/10/30 02:10:59;;;;;;;18.38;2.53;;;;;;;10.34;100.00;99885.06;5016419;28;20032;-69
2023/10/30 02:13:24;;;;;;;12.70;2.67;;;;;;;10.35;100.00;99884.88;5021289;28;20120;-68
2023/10/30 02:15:50;;;;;;;12.80;2.60;;;;;;;10.36;100.00;99886.50;5015181;28;20046;-68
2023/10/30 02:18:15;;;;;;;13.10;2.30;;;;;;;10.41;100.00;99884.13;5020058;28;20035;-68
2023/10/30 02:20:40;;;;;;;15.63;2.80;;;;;;;10.43;100.00;99883.94;5020897;28;20044;-68
2023/10/30 02:23:06;;;;;;;15.98;2.45;;;;;;;10.43;100.00;99883.94;5028053;28;20480;-68
2023/10/30 02:25:34;;;;;;;12.95;2.30;;;;;;;10.40;100.00;99881.63;5018440;28;20037;-68
2023/10/30 02:27:59;;;;;;;11.93;2.83;;;;;;;10.41;100.00;99888.63;5013307;28;20030;-68
2023/10/30 02:30:26;;;;;;;11.68;2.45;;;;;;;10.42;100.00;99879.63;5019780;28;20087;-68
2023/10/30 02:32:51;;;;;;;14.40;2.33;;;;;;;10.42;100.00;99885.75;5014838;28;20554;-68
2023/10/30 02:35:17;;;;;;;8.98;2.03;;;;;;;10.42;100.00;99869.84;5022203;28;20026;-68
2023/10/30 02:37:43;;;;;;;11.57;2.70;;;;;;;10.44;100.00;99883.72;5016204;28;20401;-68
2023/10/30 02:40:09;;;;;;;15.27;2.28;;;;;;;10.42;100.00;99869.03;5015530;28;20065;-68
2023/10/30 02:42:35;;;;;;;10.93;2.30;;;;;;;10.44;100.00;99872.28;5019937;28;20431;-69
2023/10/30 02:45:01;;;;;;;14.07;2.08;;;;;;;10.46;100.00;99880.88;5012552;28;20388;-68
2023/10/30 02:47:28;;;;;;;9.25;2.00;;;;;;;10.50;100.00;99882.13;5016126;28;20030;-68
2023/10/30 02:49:53;;;;;;;11.40;2.30;;;;;;;10.51;100.00;99878.47;5013851;28;20030;-68
2023/10/30 02:52:19;;;;;;;11.70;2.33;;;;;;;10.49;100.00;99872.53;5020623;28;20076;-68
2023/10/30 02:54:44;;;;;;;14.40;2.65;;;;;;;10.48;100.00;99874.38;5017810;28;20068;-68
2023/10/30 02:57:10;;;;;;;10.07;2.35;;;;;;;10.45;100.00;99873.94;5014832;28;20049;-68
2023/10/30 02:59:35;;;;;;;10.38;2.00;;;;;;;10.49;100.00;99872.53;5016275;28;20022;-68
2023/10/30 03:02:02;;;;;;;12.30;2.22;;;;;;;10.48;100.00;99873.53;5021105;28;20041;-68
2023/10/30 03:04:28;;;;;;;12.60;2.50;;;;;;;10.46;100.00;99872.91;5020134;28;20029;-68
2023/10/30 03:06:53;;;;;;;14.35;2.53;;;;;;;10.46;100.00;99873.75;5011448;28;20053;-68
2023/10/30 03:09:18;;;;;;;11.82;2.40;;;;;;;10.47;100.00;99877.22;5030777;28;20033;-68
2023/10/30 03:11:44;;;;;;;14.85;2.30;;;;;;;10.46;100.00;99873.75;5013559;28;20025;-68
2023/10/30 03:14:09;;;;;;;19.15;2.50;;;;;;;10.47;100.00;99879.88;5018973;28;20033;-68
2023/10/30 03:16:34;;;;;;;11.65;2.33;;;;;;;10.49;100.00;99877.84;5016509;28;20514;-68
2023/10/30 03:18:59;;;;;;;14.63;2.90;;;;;;;10.44;100.00;99889.03;5021584;28;20036;-68
2023/10/30 03:21:25;;;;;;;14.18;2.50;;;;;;;10.49;100.00;99891.13;5025100;28;20095;-68
2023/10/30 03:23:50;;;;;;;8.85;1.90;;;;;;;10.49;100.00;99899.06;5017221;28;20065;-68
2023/10/30 03:26:16;;;;;;;14.45;2.78;;;;;;;10.46;100.00;99900.28;5015977;28;20029;-68
2023/10/30 03:28:42;;;;;;;14.23;2.50;;;;;;;10.43;100.00;99902.50;5014263;28;20523;-69
2023/10/30 03:31:09;;;;;;;14.35;2.58;;;;;;;10.44;100.00;99901.50;5020453;28;20037;-69
2023/10/30 03:33:35;;;;;;;11.00;2.47;;;;;;;10.44;100.00;99901.50;5022293;28;20033;-68
2023/10/30 03:36:02;;;;;;;15.32;2.30;;;;;;;10.41;100.00;99901.88;5013562;28;20037;-68
2023/10/30 03:38:27;;;;;;;12.48;2.30;;;;;;;10.43;100.00;99894.53;5022319;28;20403;-68
2023/10/30 03:40:52;;;;;;;11.30;2.60;;;;;;;10.39;100.00;99887.94;5019986;28;20485;-68
2023/10/30 03:43:17;;;;;;;12.57;2.38;;;;;;;10.43;100.00;99887.41;5022023;28;20037;-68
2023/10/30 03:45:44;;;;;;;14.20;2.70;;;;;;;10.44;100.00;99883.72;5017389;28;20022;-68
2023/10/30 03:48:09;;;;;;;11.18;2.60;;;;;;;10.44;100.00;99880.25;5033054;28;20037;-68
2023/10/30 03:50:34;;;;;;;10.63;2.42;;;;;;;10.41;100.00;99889.44;5024519;28;20036;-68
2023/10/30 03:53:00;;;;;;;14.02;2.33;;;;;;;10.40;100.00;99894.91;5020339;28;20614;-68
2023/10/30 03:55:25;;;;;;;9.45;2.20;;;;;;;10.38;100.00;99883.66;5018239;28;20542;-68
2023/10/30 03:57:50;;;;;;;14.30;2.17;;;;;;;10.42;100.00;99890.25;5021673;28;20055;-68
2023/10/30 04:00:15;;;;;;;10.20;1.90;;;;;;;10.41;100.00;99884.13;5023840;28;20476;-68
2023/10/30 04:02:41;;;;;;;10.52;2.13;;;;;;;10.40;100.00;99887.75;5015426;28;20034;-68
2023/10/30 04:05:07;;;;;;;13.32;2.25;;;;;;;10.36;100.00;99888.34;5016881;28;20025;-68
2023/10/30 04:07:32;;;;;;;11.18;2.15;;;;;;;10.35;100.00;99892.81;5009533;28;20692;-68
2023/10/30 04:09:58;;;;;;;12.52;2.20;;;;;;;10.33;100.00;99886.06;5011940;28;20022;-68
2023/10/30 04:12:23;;;;;;;13.93;2.38;;;;;;;10.32;100.00;99889.75;5020931;28;20117;-68
2023/10/30 04:14:48;;;;;;;14.63;2.85;;;;;;;10.27;100.00;99885.00;5023914;28;20124;-68
2023/10/30 04:17:13;;;;;;;14.05;2.65;;;;;;;10.26;100.00;99885.22;5026105;28;20480;-68
2023/10/30 04:19:39;;;;;;;15.25;2.15;;;;;;;10.24;100.00;99885.41;5013860;28;20033;-68
2023/10/30 04:22:04;;;;;;;13.57;2.35;;;;;;;10.23;100.00;99878.47;5013953;28;20064;-68
2023/10/30 04:24:29;;;;;;;10.25;2.10;;;;;;;10.22;100.00;99882.13;5010453;28;20033;-68
2023/10/30 04:26:55;;;;;;;17.63;2.25;;;;;;;10.20;100.00;99878.81;5016144;28;20060;-68
2023/10/30 04:29:20;;;;;;;14.10;2.28;;;;;;;10.19;100.00;99880.66;5020540;28;20026;-68
2023/10/30 04:31:45;;;;;;;11.80;1.95;;;;;;;10.18;100.00;99876.34;5015295;28;20032;-68
2023/10/30 04:34:10;;;;;;;10.73;2.13;;;;;;;10.20;100.00;99884.13;5016808;28;20073;-68
2023/10/30 04:36:36;;;;;;;11.38;2.03;;;;;;;10.19;100.00;99885.13;5013765;28;20044;-68
2023/10/30 04:39:01;;;;;;;13.73;2.47;;;;;;;10.15;100.00;99882.03;5014469;28;20033;-68
2023/10/30 04:41:26;;;;;;;14.90;2.55;;;;;;;10.16;100.00;99881.03;5020021;28;20063;-68
2023/10/30 04:43:52;;;;;;;11.23;2.22;;;;;;;10.16;100.00;99891.66;5017221;28;20032;-68
2023/10/30 04:46:17;;;;;;;11.70;2.45;;;;;;;10.16;100.00;99896.94;5009439;28;20021;-68
2023/10/30 04:48:42;;;;;;;16.95;2.85;;;;;;;10.16;100.00;99896.13;5013623;28;20018;-68
2023/10/30 04:51:08;;;;;;;16.90;2.60;;;;;;;10.13;100.00;99896.50;5023608;28;20080;-68
2023/10/30 04:53:33;;;;;;;10.38;2.30;;;;;;;10.11;100.00;99891.38;5023384;28;20029;-68
2023/10/30 04:55:59;;;;;;;11.88;2.33;;;;;;;10.15;100.00;99902.44;5012526;28;20069;-68
2023/10/30 04:58:24;;;;;;;14.95;2.20;;;;;;;10.15;100.00;99895.31;5013668;28;20041;-68
2023/10/30 05:00:50;;;;;;;11.02;2.30;;;;;;;10.09;100.00;99890.75;5010642;28;20030;-68
2023/10/30 05:03:16;;;;;;;13.07;2.38;;;;;;;10.14;100.00;99890.19;5016799;28;20535;-68
2023/10/30 05:05:41;;;;;;;11.10;2.45;;;;;;;10.13;100.00;99892.03;5022760;28;20041;-68
2023/10/30 05:08:06;;;;;;;9.57;2.35;;;;;;;10.15;100.00;99882.03;5011819;28;20545;-68
2023/10/30 05:10:32;;;;;;;15.75;2.80;;;;;;;10.15;100.00;99884.69;5023479;28;20426;-68
2023/10/30 05:12:57;;;;;;;13.75;2.20;;;;;;;10.15;100.00;99879.38;5014625;28;20077;-68
2023/10/30 05:15:23;;;;;;;10.05;2.10;;;;;;;10.08;100.00;99862.56;5008538;28;20034;-68
2023/10/30 05:17:49;;;;;;;13.70;2.15;;;;;;;10.12;100.00;99882.44;5014387;28;20026;-68
2023/10/30 05:20:15;;;;;;;14.27;2.38;;;;;;;10.13;100.00;99897.34;5020548;28;20487;-68
2023/10/30 05:22:43;;;;;;;14.93;2.55;;;;;;;10.11;100.00;99888.72;5013645;28;20030;-68
2023/10/30 05:25:09;;;;;;;15.38;3.08;;;;;;;10.11;100.00;99896.69;5008757;28;20033;-68
2023/10/30 05:27:34;;;;;;;13.38;2.30;;;;;;;10.09;100.00;99877.47;5018646;28;20119;-68
2023/10/30 05:30:00;;;;;;;11.13;2.08;;;;;;;10.09;100.00;99890.75;5018623;28;20014;-68
2023/10/30 05:32:25;;;;;;;12.70;2.60;;;;;;;10.10;100.00;99886.25;5020904;28;20049;-68
2023/10/30 05:34:52;;;;;;;14.63;2.70;;;;;;;10.09;100.00;99868.69;5013439;28;20029;-68
2023/10/30 05:37:18;;;;;;;10.05;2.17;;;;;;;10.06;100.00;99861.94;5015446;28;20025;-68
2023/10/30 05:39:43;;;;;;;10.90;2.13;;;;;;;10.07;100.00;99866.25;5016433;28;20026;-68
2023/10/30 05:42:09;;;;;;;12.10;2.50;;;;;;;10.07;100.00;99878.69;5017181;28;20033;-68
2023/10/30 05:44:34;;;;;;;15.23;2.40;;;;;;;10.08;100.00;99883.78;5015590;28;20499;-68
2023/10/30 05:47:00;;;;;;;13.55;2.03;;;;;;;10.07;100.00;99876.84;5013634;28;20080;-68
2023/10/30 05:49:26;;;;;;;17.17;3.05;;;;;;;10.08;100.00;99877.66;5017079;28;20024;-68
2023/10/30 05:51:52;;;;;;;15.98;2.38;;;;;;;10.09;100.00;99884.63;5014047;28;20036;-68
2023/10/30 05:54:17;;;;;;;12.65;2.53;;;;;;;10.08;100.00;99875.00;5020585;28;20034;-68
2023/10/30 05:56:43;;;;;;;11.43;2.05;;;;;;;10.04;100.00;99871.94;5018625;28;20021;-68
2023/10/30 05:59:08;;;;;;;14.93;2.55;;;;;;;10.08;100.00;99878.50;5026243;28;20045;-68
2023/10/30 06:01:33;;;;;;;11.68;2.38;;;;;;;10.09;100.00;99879.31;5023140;28;20026;-68
2023/10/30 06:03:58;;;;;;;17.52;2.60;;;;;;;10.08;100.00;99872.38;5012001;28;20028;-68
2023/10/30 06:06:24;;;;;;;13.80;2.60;;;;;;;10.06;100.00;99879.69;5015224;28;20029;-68
2023/10/30 06:08:49;;;;;;;12.50;2.65;;;;;;;10.06;100.00;99888.47;5015555;28;20038;-68
2023/10/30 06:11:15;;;;;;;13.80;2.30;;;;;;;9.98;100.00;99885.97;5025171;28;20025;-68
2023/10/30 06:13:41;;;;;;;13.32;2.15;;;;;;;10.02;100.00;99886.41;5018155;28;20369;-68
2023/10/30 06:16:06;;;;;;;18.75;2.55;;;;;;;10.02;100.00;99889.03;5016640;28;20032;-68
2023/10/30 06:18:31;;;;;;;17.48;2.60;;;;;;;9.99;100.00;99878.81;5021695;28;20123;-68
2023/10/30 06:20:57;;;;;;;15.38;2.60;;;;;;;9.88;100.00;99867.72;5012721;28;20045;-68
2023/10/30 06:23:22;;;;;;;19.13;3.15;;;;;;;9.94;100.00;99887.34;5022274;28;20030;-68
2023/10/30 06:25:48;;;;;;;14.75;2.25;;;;;;;9.82;100.00;99878.25;5015775;28;20045;-68
2023/10/30 06:28:15;;;;;;;12.48;2.28;;;;;;;9.91;100.00;99909.78;5014171;28;20026;-68
2023/10/30 06:30:41;;;;;;;12.57;2.22;;;;;;;9.88;100.00;99910.16;5014459;28;20017;-68
2023/10/30 06:33:06;;;;;;;11.65;2.55;;;;;;;9.87;100.00;99913.81;5021541;28;20032;-68
2023/10/30 06:35:31;;;;;;;11.10;2.45;;;;;;;9.79;100.00;99905.13;5019442;28;20025;-68
2023/10/30 06:37:57;;;;;;;14.98;6.00;;;;;;;9.81;100.00;99916.38;5034747;28;20036;-68
2023/10/30 06:40:22;;;;;;;16.38;3.00;;;;;;;9.79;100.00;99921.03;5021036;28;20022;-68
2023/10/30 06:42:47;;;;;;;12.13;2.35;;;;;;;9.75;100.00;99920.59;5019581;28;20022;-68
2023/10/30 06:45:12;;;;;;;12.85;2.50;;;;;;;9.74;100.00;99931.41;5018514;28;20025;-68
2023/10/30 06:47:38;;;;;;;15.52;2.58;;;;;;;9.66;100.00;99918.25;5014403;28;20037;-68
2023/10/30 06:50:03;;;;;;;11.95;2.40;;;;;;;9.71;100.00;99931.78;5014005;28;20026;-69
2023/10/30 06:52:28;;;;;;;16.17;2.55;;;;;;;9.69;100.00;99929.31;5018958;28;20052;-69
2023/10/30 06:54:54;;;;;;;20.30;2.70;;;;;;;9.66;100.00;99927.03;5021175;28;20033;-68
2023/10/30 06:57:19;;;;;;;12.07;2.50;;;;;;;9.66;100.00;99927.03;5022105;28;20082;-68
2023/10/30 06:59:44;;;;;;;14.57;2.72;;;;;;;9.68;100.00;99932.16;5022968;28;20078;-68
2023/10/30 07:02:10;;;;;;;15.75;2.92;;;;;;;9.68;100.00;99932.97;5020526;28;20081;-68
2023/10/30 07:04:35;;;;;;;16.83;2.88;;;;;;;9.67;100.00;99930.50;5019289;28;20104;-68
2023/10/30 07:07:01;;;;;;;12.65;2.38;;;;;;;9.69;100.00;99912.59;5012601;28;20038;-68
2023/10/30 07:09:26;;;;;;;18.55;2.65;;;;;;;9.71;100.00;99927.28;5021713;28;20108;-68
2023/10/30 07:11:51;;;;;;;14.38;2.78;;;;;;;9.75;100.00;99925.91;5015119;28;20060;-68
2023/10/30 07:14:17;;;;;;;14.70;2.65;;;;;;;9.80;100.00;99928.00;5013869;28;20029;-68
2023/10/30 07:16:42;;;;;;;13.68;2.30;;;;;;;9.85;100.00;99929.09;5025603;28;20036;-68
2023/10/30 07:19:07;;;;;;;12.63;2.70;;;;;;;9.90;100.00;99929.34;5019892;28;20117;-68
2023/10/30 07:21:33;;;;;;;16.23;3.08;;;;;;;9.97;100.00;99939.19;5016013;28;20038;-68
2023/10/30 07:23:58;;;;;;;13.63;2.58;;;;;;;10.01;100.00;99941.28;5021584;28;20046;-68
2023/10/30 07:26:24;;;;;;;12.13;2.30;;;;;;;10.06;100.00;99943.34;5016978;28;20030;-68
2023/10/30 07:28:49;;;;;;;13.18;2.40;;;;;;;10.11;100.00;99936.47;5015125;28;20498;-68
2023/10/30 07:31:18;;;;;;;16.70;2.55;;;;;;;10.12;100.00;99945.25;5015934;28;20459;-68
2023/10/30 07:33:43;;;;;;;12.30;2.58;;;;;;;10.15;100.00;99948.38;5015941;28;20037;-68
2023/10/30 07:36:08;;;;;;;19.63;2.80;;;;;;;10.16;100.00;99957.97;5017472;28;20084;-68
2023/10/30 07:38:33;;;;;;;17.77;3.10;;;;;;;10.17;100.00;99962.25;5019319;28;20569;-68
2023/10/30 07:40:59;;;;;;;17.58;2.70;;;;;;;10.22;100.00;99969.69;5022858;28;20033;-68
2023/10/30 07:43:24;;;;;;;14.75;2.47;;;;;;;10.25;100.00;99979.91;5028046;28;20048;-68
2023/10/30 07:45:50;;;;;;;13.23;2.55;;;;;;;10.30;100.00;99987.31;5018508;28;20075;-68
2023/10/30 07:48:16;;;;;;;16.70;3.10;;;;;;;10.36;100.00;99983.88;5011138;28;20026;-68
2023/10/30 07:50:42;;;;;;;13.43;2.92;;;;;;;10.42;100.00;99985.81;5018431;28;20053;-68
2023/10/30 07:53:08;;;;;;;13.88;2.50;;;;;;;10.50;100.00;99983.00;5025053;28;20113;-68
2023/10/30 07:55:34;;;;;;;12.57;2.42;;;;;;;10.57;100.00;99985.72;5015683;28;20105;-68
2023/10/30 07:57:59;;;;;;;15.88;2.85;;;;;;;10.63;100.00;99983.09;5010866;28;20060;-68
2023/10/30 08:00:24;;;;;;;13.73;2.55;;;;;;;10.67;100.00;99986.19;5009995;28;20026;-68
2023/10/30 08:02:50;;;;;;;12.80;2.42;;;;;;;10.70;100.00;99988.50;5014485;28;20407;-68
2023/10/30 08:05:15;;;;;;;15.40;2.55;;;;;;;10.73;100.00;99990.75;5015152;28;20029;-68
2023/10/30 08:07:41;;;;;;;12.38;2.25;;;;;;;10.79;100.00;99977.53;5010295;28;20022;-68
2023/10/30 08:10:07;;;;;;;13.32;2.55;;;;;;;10.83;100.00;99978.78;5009669;28;20064;-68
2023/10/30 08:12:33;;;;;;;11.77;2.15;;;;;;;10.87;100.00;99979.22;5013038;28;21940;-68
2023/10/30 08:14:59;;;;;;;12.63;2.58;;;;;;;10.92;100.00;99983.94;5017115;28;20021;-68
2023/10/30 08:17:26;;;;;;;12.43;2.60;;;;;;;10.95;100.00;99976.41;5008179;28;20033;-68
2023/10/30 08:19:51;;;;;;;15.93;2.53;;;;;;;10.98;100.00;99978.66;5016709;28;20033;-68
2023/10/30 08:22:16;;;;;;;15.05;2.67;;;;;;;11.04;100.00;99974.44;5011732;28;20327;-68
2023/10/30 08:24:41;;;;;;;14.88;2.72;;;;;;;11.04;100.00;99979.75;5013432;28;20061;-68
2023/10/30 08:27:07;;;;;;;13.48;2.72;;;;;;;11.08;100.00;99975.69;5009972;28;20029;-68
2023/10/30 08:29:32;;;;;;;19.75;2.90;;;;;;;11.09;100.00;99972.81;5020949;28;20068;-68
2023/10/30 08:31:57;;;;;;;13.75;2.72;;;;;;;11.11;100.00;99978.75;5014016;28;20033;-68
2023/10/30 08:34:22;;;;;;;14.63;2.70;;;;;;;11.12;100.00;99984.91;5012578;28;20025;-68
2023/10/30 08:36:48;;;;;;;12.90;2.78;;;;;;;11.14;100.00;99990.84;5014505;28;20057;-68
2023/10/30 08:39:13;;;;;;;15.32;3.00;;;;;;;11.14;100.00;99986.34;5021475;28;20022;-68
2023/10/30 08:41:39;;;;;;;14.77;2.40;;;;;;;11.17;100.00;99987.78;5011793;28;20508;-68
2023/10/30 08:44:04;;;;;;;14.05;2.38;;;;;;;11.18;100.00;99981.47;5024392;28;20022;-68
2023/10/30 08:46:30;;;;;;;19.23;3.00;;;;;;;11.20;100.00;99979.41;5023322;28;20488;-68
2023/10/30 08:48:57;;;;;;;12.70;2.08;;;;;;;11.23;100.00;99978.22;5019661;28;20038;-68
2023/10/30 08:51:23;;;;;;;18.13;2.70;;;;;;;11.25;100.00;99979.66;5022115;28;20499;-68
2023/10/30 08:53:50;;;;;;;10.88;2.22;;;;;;;11.28;100.00;99973.16;5020741;28;20022;-68
2023/10/30 08:56:16;;;;;;;13.48;2.40;;;;;;;11.28;100.00;99971.31;5022786;28;20100;-68
2023/10/30 08:58:41;;;;;;;19.20;2.58;;;;;;;11.28;100.00;99973.97;5019632;28;20022;-68
2023/10/30 09:01:06;;;;;;;13.35;2.47;;;;;;;11.34;100.00;99986.47;5008945;28;20061;-68
2023/10/30 09:03:32;;;;;;;15.00;2.88;;;;;;;11.42;100.00;99988.13;5009995;28;20040;-68
2023/10/30 09:05:57;;;;;;;11.50;2.30;;;;;;;11.48;100.00;99982.03;5014150;28;20507;-68
2023/10/30 09:08:22;;;;;;;10.10;2.08;;;;;;;11.56;100.00;99989.00;5017147;28;20057;-68
2023/10/30 09:10:47;;;;;;;16.75;2.80;;;;;;;11.61;100.00;99997.25;5014008;28;20517;-68
2023/10/30 09:13:13;;;;;;;14.70;2.20;;;;;;;11.65;100.00;99993.16;5020069;28;20021;-68
2023/10/30 09:15:38;;;;;;;12.65;2.42;;;;;;;11.73;100.00;99992.97;5023489;28;20072;-68
2023/10/30 09:18:04;;;;;;;10.80;2.53;;;;;;;11.77;100.00;99997.69;5021108;28;20368;-68
2023/10/30 09:20:29;;;;;;;16.77;2.72;;;;;;;11.81;100.00;99987.50;5013556;28;20068;-68
2023/10/30 09:22:54;;;;;;;13.90;2.63;;;;;;;11.84;100.00;99987.09;5011527;28;20056;-68
2023/10/30 09:25:21;;;;;;;12.40;2.58;;;;;;;11.91;100.00;99992.47;5009492;28;20034;-68
2023/10/30 09:27:49;;;;;;;12.20;2.30;;;;;;;11.94;100.00;99976.94;5012565;28;20042;-68
2023/10/30 09:30:15;;;;;;;16.20;2.58;;;;;;;11.98;100.00;99969.34;5012021;28;20026;-68
2023/10/30 09:32:40;;;;;;;17.35;2.30;;;;;;;12.00;100.00;99969.97;5009224;28;20022;-68
2023/10/30 09:35:06;;;;;;;16.25;2.42;;;;;;;12.02;100.00;99968.75;5008453;28;20507;-68
2023/10/30 09:37:31;;;;;;;10.82;2.22;;;;;;;12.04;100.00;99974.69;5013349;28;20021;-68
2023/10/30 09:39:56;;;;;;;13.20;2.30;;;;;;;12.06;100.00;99969.16;5014390;28;20380;-68
2023/10/30 09:42:22;;;;;;;11.45;2.00;;;;;;;12.06;100.00;99972.66;5009575;28;20038;-68
2023/10/30 09:44:48;;;;;;;11.63;1.88;;;;;;;12.09;100.00;99974.91;5014318;28;20029;-68
2023/10/30 09:47:14;;;;;;;11.65;2.35;;;;;;;12.12;100.00;99960.38;5012291;28;20046;-68
2023/10/30 09:49:39;;;;;;;14.30;2.05;;;;;;;12.15;100.00;99964.50;5019597;28;20025;-68
2023/10/30 09:52:07;;;;;;;15.07;2.50;;;;;;;12.18;100.00;99972.06;5015885;28;20040;-68
2023/10/30 09:54:34;;;;;;;11.02;2.20;;;;;;;12.19;100.00;99971.06;5022858;28;20025;-69
2023/10/30 09:57:03;;;;;;;13.57;2.67;;;;;;;12.22;100.00;99970.66;5011226;28;20037;-68
2023/10/30 09:59:32;;;;;;;12.73;2.47;;;;;;;12.24;100.00;99971.25;5011770;28;20026;-69
2023/10/30 10:01:57;;;;;;;13.00;2.70;;;;;;;12.25;100.00;99967.56;5010655;28;20033;-68
2023/10/30 10:04:23;;;;;;;9.65;2.08;;;;;;;12.27;100.00;99957.53;5015362;28;20029;-68
2023/10/30 10:06:51;;;;;;;11.13;2.40;;;;;;;12.29;100.00;99953.66;5008152;28;20040;-69
2023/10/30 10:09:16;;;;;;;13.68;2.05;;;;;;;12.32;100.00;99960.41;5011259;28;20365;-69
2023/10/30 10:11:42;;;;;;;6.88;1.80;;;;;;;12.31;100.00;99956.09;5020805;28;20036;-70
2023/10/30 10:14:08;;;;;;;10.45;2.15;;;;;;;12.31;100.00;99945.47;5020221;28;20029;-69
2023/10/30 10:16:35;;;;;;;12.70;2.28;;;;;;;12.33;100.00;99956.72;5025099;28;20406;-69
2023/10/30 10:19:21;;;;;;;11.65;2.45;;;;;;;12.36;100.00;99953.66;5027871;28;20030;-70
2023/10/30 10:21:49;;;;;;;10.35;2.28;;;;;;;12.37;100.00;99958.78;5029867;28;20395;-68
2023/10/30 10:24:36;;;;;;;14.93;2.38;;;;;;;12.38;100.00;99951.59;5028694;28;20033;-69
2023/10/30 10:27:04;;;;;;;9.82;2.13;;;;;;;12.34;100.00;99935.22;5020024;28;20021;-69
2023/10/30 10:29:33;;;;;;;10.68;2.00;;;;;;;12.39;100.00;99947.91;5033658;28;20159;-70
2023/10/30 10:31:59;;;;;;;10.70;2.20;;;;;;;12.40;100.00;99950.38;5029417;28;20049;-69
2023/10/30 10:34:30;;;;;;;10.85;2.08;;;;;;;12.41;100.00;99948.53;5021516;28;20461;-68
2023/10/30 10:36:59;;;;;;;10.68;2.10;;;;;;;12.42;100.00;99942.19;5020050;28;20574;-68
2023/10/30 10:39:25;;;;;;;11.25;2.00;;;;;;;12.45;100.00;99947.13;5022742;28;20038;-68
2023/10/30 10:41:51;;;;;;;11.45;2.28;;;;;;;12.46;100.00;99938.09;5016617;28;20510;-68
2023/10/30 10:44:19;;;;;;;10.70;2.30;;;;;;;12.52;100.00;99937.28;5017396;28;20034;-68
2023/10/30 10:46:44;;;;;;;8.70;2.00;;;;;;;12.57;100.00;99942.00;5012970;28;20488;-68
2023/10/30 10:49:09;;;;;;;10.25;1.85;;;;;;;12.60;100.00;99937.06;5014227;28;20105;-69
2023/10/30 10:51:37;;;;;;;13.15;2.63;;;;;;;12.65;100.00;99937.25;5021033;28;20030;-68
2023/10/30 10:54:09;;;;;;;13.82;1.88;;;;;;;12.71;100.00;99940.94;5020663;28;20036;-68
2023/10/30 10:56:37;;;;;;;7.88;1.90;;;;;;;12.73;100.00;99938.91;5018460;28;20068;-68
2023/10/30 10:59:11;;;;;;;11.88;1.80;;;;;;;12.75;100.00;99936.03;5018683;28;20727;-69
2023/10/30 11:01:40;;;;;;;7.97;1.90;;;;;;;12.73;100.00;99928.25;5012288;28;20577;-69
2023/10/30 11:04:06;;;;;;;9.18;1.90;;;;;;;12.76;100.00;99937.69;5014176;28;20022;-68
2023/10/30 11:06:38;;;;;;;10.68;1.98;;;;;;;12.71;100.00;99938.28;5026150;28;20428;-69
2023/10/30 11:09:16;;;;;;;9.88;1.90;;;;;;;12.67;100.00;99929.06;5024433;28;20192;-68
2023/10/30 11:12:07;;;;;;;8.40;2.13;;;;;;;12.64;100.00;99930.28;5010800;28;20021;-69
2023/10/30 11:14:48;;;;;;;9.45;1.90;;;;;;;12.61;100.00;99929.91;5009923;28;20034;-68